Station History


Daily Summary for February 19, 2012 Units:  English    Metric   Both
« Previous Day
Next Day »
Daily Weekly Monthly Yearly Custom
  High: Low: Average:
Temperature: 61.1 °F 40.5 °F 49 °F
Dew Point: 46.0 °F 36.9 °F 41.6 °F
Humidity: 93% 48% 77%
Wind Speed: 5.0mph 0.0mph 1.9mph
Wind Gust: 5.0mph - -
Wind- - West
Pressure: 30.12 in 30.04 in -
Precipitation: 0.00 in    
Historical Graphs
 
 
Tabular Data for February 19, 2012
Time Temperature Dew Point Pressure Wind Wind Speed Wind Gust Humidity Rainfall Rate (Hourly)
00:01 50.0 °F 45.0 °F 30.05 in Calm     83% 0.00 in
00:06 49.8 °F 44.8 °F 30.05 in Calm   0.3 mph 83% 0.00 in
00:11 49.8 °F 45.2 °F 30.05 in ENE 1.1 mph 1.1 mph 84% 0.00 in
00:16 49.9 °F 45.3 °F 30.05 in Calm     84% 0.00 in
00:21 50.0 °F 45.4 °F 30.05 in NNW 1.1 mph   84% 0.00 in
00:26 49.9 °F 45.3 °F 30.05 in NNW 1.1 mph   84% 0.00 in
00:31 49.7 °F 45.4 °F 30.05 in NNW 1.1 mph 1.1 mph 85% 0.00 in
00:36 49.4 °F 45.1 °F 30.05 in Calm     85% 0.00 in
00:42 49.2 °F 45.2 °F 30.05 in NW 1.1 mph 1.1 mph 86% 0.00 in
00:47 49.2 °F 45.2 °F 30.05 in North 2.3 mph 2.3 mph 86% 0.00 in
00:52 49.0 °F 45.0 °F 30.05 in Calm     86% 0.00 in
00:57 48.8 °F 45.1 °F 30.05 in NNW 1.1 mph 1.1 mph 87% 0.00 in
01:02 48.8 °F 45.4 °F 30.05 in North 3.5 mph 3.5 mph 88% 0.00 in
01:07 48.8 °F 45.4 °F 30.05 in WNW 2.3 mph 2.3 mph 88% 0.00 in
01:12 48.8 °F 45.4 °F 30.05 in NNW 3.5 mph 3.5 mph 88% 0.00 in
01:17 48.8 °F 45.4 °F 30.05 in East 2.3 mph 2.3 mph 88% 0.00 in
01:22 48.8 °F 45.4 °F 30.04 in NNW 1.1 mph 1.1 mph 88% 0.00 in
01:27 48.8 °F 45.4 °F 30.04 in NNW 2.3 mph 2.3 mph 88% 0.00 in
01:32 48.8 °F 45.7 °F 30.04 in NW 4.6 mph 4.6 mph 89% 0.00 in
01:37 48.8 °F 45.4 °F 30.04 in NNW 2.3 mph 2.3 mph 88% 0.00 in
01:42 48.8 °F 45.7 °F 30.04 in NW 1.1 mph 1.1 mph 89% 0.00 in
01:47 48.8 °F 45.7 °F 30.04 in NNW 2.3 mph 2.3 mph 89% 0.00 in
01:52 48.6 °F 45.5 °F 30.04 in NW 1.1 mph 1.1 mph 89% 0.00 in
01:57 48.4 °F 45.3 °F 30.05 in NNW 3.5 mph 3.5 mph 89% 0.00 in
02:02 48.3 °F 45.2 °F 30.05 in North 2.0 mph 2.0 mph 89% 0.00 in
02:07 48.1 °F 45.0 °F 30.05 in North 1.1 mph 1.1 mph 89% 0.00 in
02:12 47.9 °F 45.1 °F 30.05 in NNE 1.1 mph 1.1 mph 90% 0.00 in
02:17 47.8 °F 45.0 °F 30.05 in Calm     90% 0.00 in
02:22 47.7 °F 45.2 °F 30.05 in NNW 2.3 mph 2.3 mph 91% 0.00 in
02:27 47.7 °F 45.2 °F 30.05 in North 1.1 mph 1.1 mph 91% 0.00 in
02:32 47.7 °F 45.2 °F 30.05 in NNW 1.1 mph 1.1 mph 91% 0.00 in
02:37 47.6 °F 45.1 °F 30.05 in Calm     91% 0.00 in
02:42 47.5 °F 45.0 °F 30.05 in Calm     91% 0.00 in
02:47 47.3 °F 44.8 °F 30.05 in Calm     91% 0.00 in
02:52 47.3 °F 44.8 °F 30.05 in North 1.1 mph 1.1 mph 91% 0.00 in
02:57 47.2 °F 44.7 °F 30.05 in Calm     91% 0.00 in
03:02 47.2 °F 44.7 °F 30.05 in West 1.1 mph 1.1 mph 91% 0.00 in
03:07 47.2 °F 45.0 °F 30.05 in NNW 1.1 mph 1.1 mph 92% 0.00 in
03:12 47.3 °F 45.1 °F 30.05 in NNW 1.1 mph   92% 0.00 in
03:17 47.3 °F 45.1 °F 30.04 in West 1.1 mph   92% 0.00 in
03:22 47.4 °F 44.9 °F 30.04 in WNW 2.3 mph 2.3 mph 91% 0.00 in
03:27 47.4 °F 44.9 °F 30.04 in NNW 2.0 mph 2.0 mph 91% 0.00 in
03:32 47.4 °F 44.9 °F 30.04 in NE 3.5 mph 3.5 mph 91% 0.00 in
03:37 47.5 °F 44.7 °F 30.04 in NW 2.3 mph 2.3 mph 90% 0.00 in
03:42 47.5 °F 44.4 °F 30.04 in NNW 3.5 mph 3.5 mph 89% 0.00 in
03:47 47.4 °F 44.3 °F 30.04 in NW 3.5 mph 3.5 mph 89% 0.00 in
03:52 47.3 °F 43.9 °F 30.04 in NNW 4.6 mph 4.6 mph 88% 0.00 in
03:57 47.3 °F 43.9 °F 30.04 in North 1.1 mph 1.1 mph 88% 0.00 in
04:02 47.1 °F 43.7 °F 30.05 in NW 2.3 mph 2.3 mph 88% 0.00 in
04:08 46.9 °F 43.5 °F 30.05 in NW 1.1 mph 1.1 mph 88% 0.00 in
04:13 46.8 °F 43.4 °F 30.05 in NW 1.1 mph 1.1 mph 88% 0.00 in
04:18 46.5 °F 43.1 °F 30.05 in NNW 1.1 mph 1.1 mph 88% 0.00 in
04:23 46.3 °F 42.9 °F 30.05 in NNW 1.1 mph 1.1 mph 88% 0.00 in
04:28 46.0 °F 42.6 °F 30.05 in NNW 1.1 mph 1.1 mph 88% 0.00 in
04:33 45.7 °F 42.3 °F 30.05 in NNW 1.1 mph 1.1 mph 88% 0.00 in
04:38 45.5 °F 42.4 °F 30.05 in WNW 1.1 mph 1.1 mph 89% 0.00 in
04:43 45.2 °F 42.2 °F 30.05 in Calm     89% 0.00 in
04:48 45.1 °F 42.1 °F 30.05 in Calm     89% 0.00 in
04:53 44.8 °F 41.8 °F 30.05 in Calm     89% 0.00 in
04:58 44.5 °F 41.7 °F 30.05 in Calm     90% 0.00 in
05:03 44.3 °F 41.6 °F 30.05 in West 1.1 mph   90% 0.00 in
05:08 44.3 °F 41.8 °F 30.05 in NW 2.3 mph 2.3 mph 91% 0.00 in
05:13 44.3 °F 41.8 °F 30.05 in NNW 1.1 mph 1.1 mph 91% 0.00 in
05:14 44.3 °F 41.8 °F 30.05 in NNW 1.1 mph 1.1 mph 91% 0.00 in
05:19 44.2 °F 41.7 °F 30.05 in North 1.1 mph 1.1 mph 91% 0.00 in
05:24 44.1 °F 41.6 °F 30.06 in Calm     91% 0.00 in
05:29 43.9 °F 41.4 °F 30.06 in Calm     91% 0.00 in
05:34 43.6 °F 41.1 °F 30.06 in Calm     91% 0.00 in
05:39 43.4 °F 40.9 °F 30.06 in Calm     91% 0.00 in
05:44 43.2 °F 40.8 °F 30.06 in Calm     91% 0.00 in
05:49 42.9 °F 40.5 °F 30.06 in Calm     91% 0.00 in
05:54 42.8 °F 40.6 °F 30.06 in Calm     92% 0.00 in
05:59 42.6 °F 40.4 °F 30.06 in Calm     92% 0.00 in
06:04 42.4 °F 40.2 °F 30.06 in Calm     92% 0.00 in
06:09 42.3 °F 40.4 °F 30.07 in Calm     93% 0.00 in
06:14 42.2 °F 40.3 °F 30.07 in Calm     93% 0.00 in
06:19 42.0 °F 40.1 °F 30.07 in Calm     93% 0.00 in
06:24 41.9 °F 40.0 °F 30.07 in Calm     93% 0.00 in
06:29 41.8 °F 39.9 °F 30.07 in Calm     93% 0.00 in
06:34 41.8 °F 39.9 °F 30.08 in Calm     93% 0.00 in
06:39 41.8 °F 39.9 °F 30.07 in SSW 1.1 mph   93% 0.00 in
06:44 41.9 °F 40.0 °F 30.07 in Calm     93% 0.00 in
06:49 42.1 °F 40.2 °F 30.08 in Calm     93% 0.00 in
06:54 42.2 °F 40.3 °F 30.08 in Calm     93% 0.00 in
06:59 42.4 °F 40.5 °F 30.08 in Calm     93% 0.00 in
07:04 42.5 °F 40.6 °F 30.08 in Calm     93% 0.00 in
07:09 42.7 °F 40.8 °F 30.08 in Calm     93% 0.00 in
07:14 43.0 °F 40.8 °F 30.08 in Calm     92% 0.00 in
07:19 43.3 °F 40.8 °F 30.08 in Calm     91% 0.00 in
07:24 43.6 °F 40.9 °F 30.08 in Calm     90% 0.00 in
07:29 43.9 °F 40.9 °F 30.08 in Calm     89% 0.00 in
07:34 44.2 °F 41.2 °F 30.08 in Calm   0.2 mph 89% 0.00 in
07:39 44.4 °F 41.1 °F 30.09 in South 1.1 mph 1.1 mph 88% 0.00 in
07:44 44.5 °F 40.9 °F 30.09 in West 1.1 mph 1.1 mph 87% 0.00 in
07:49 44.5 °F 40.9 °F 30.09 in Calm     87% 0.00 in
07:54 44.7 °F 40.8 °F 30.09 in SW 1.1 mph   86% 0.00 in
07:59 44.8 °F 40.9 °F 30.09 in SSW 1.1 mph   86% 0.00 in
08:04 44.9 °F 40.7 °F 30.09 in WSW 1.1 mph 1.1 mph 85% 0.00 in
08:09 45.1 °F 40.9 °F 30.10 in South 1.1 mph 1.1 mph 85% 0.00 in
08:14 45.2 °F 41.0 °F 30.10 in Calm     85% 0.00 in
08:19 45.4 °F 40.8 °F 30.10 in Calm     84% 0.00 in
08:25 45.6 °F 41.0 °F 30.10 in Calm     84% 0.00 in
08:30 45.7 °F 40.8 °F 30.10 in SSW 2.0 mph 2.0 mph 83% 0.00 in
08:35 45.7 °F 40.8 °F 30.10 in Calm     83% 0.00 in
08:36 45.7 °F 40.8 °F 30.10 in Calm     83% 0.00 in
08:41 45.8 °F 40.9 °F 30.10 in Calm     83% 0.00 in
08:46 45.9 °F 41.0 °F 30.10 in WNW 1.1 mph 1.1 mph 83% 0.00 in
08:51 45.9 °F 41.0 °F 30.10 in Calm     83% 0.00 in
08:56 46.0 °F 41.1 °F 30.10 in Calm     83% 0.00 in
09:01 46.1 °F 40.9 °F 30.10 in SSW 1.1 mph   82% 0.00 in
09:06 46.1 °F 41.2 °F 30.10 in Calm     83% 0.00 in
09:11 46.3 °F 41.4 °F 30.10 in Calm     83% 0.00 in
09:16 46.5 °F 41.3 °F 30.11 in Calm     82% 0.00 in
09:21 46.9 °F 41.4 °F 30.11 in Calm     81% 0.00 in
09:26 47.1 °F 41.2 °F 30.11 in Calm     80% 0.00 in
09:31 47.2 °F 41.7 °F 30.11 in Calm     81% 0.00 in
09:36 47.6 °F 41.7 °F 30.11 in Calm     80% 0.00 in
09:41 48.0 °F 42.1 °F 30.11 in Calm     80% 0.00 in
09:46 48.2 °F 41.7 °F 30.11 in Calm   0.2 mph 78% 0.00 in
09:51 48.4 °F 41.9 °F 30.11 in WSW 1.1 mph 1.1 mph 78% 0.00 in
09:56 48.6 °F 41.7 °F 30.11 in WNW 1.1 mph 1.1 mph 77% 0.00 in
10:01 49.0 °F 42.1 °F 30.11 in West 1.1 mph 1.1 mph 77% 0.00 in
10:06 49.1 °F 42.2 °F 30.11 in West 1.1 mph   77% 0.00 in
10:11 49.2 °F 42.3 °F 30.11 in Calm     77% 0.00 in
10:16 49.5 °F 42.9 °F 30.11 in SSW 1.0 mph   78% 0.00 in
10:22 49.7 °F 42.8 °F 30.11 in Calm     77% 0.00 in
10:27 49.8 °F 42.5 °F 30.11 in Calm   0.1 mph 76% 0.00 in
10:32 49.7 °F 42.8 °F 30.11 in SW 1.1 mph   77% 0.00 in
10:37 49.8 °F 42.9 °F 30.11 in SW 1.0 mph 1.0 mph 77% 0.00 in
10:42 50.2 °F 42.9 °F 30.11 in West 1.1 mph 1.1 mph 76% 0.00 in
10:47 50.4 °F 43.5 °F 30.11 in Calm     77% 0.00 in
10:52 50.8 °F 43.2 °F 30.11 in West 1.1 mph   75% 0.00 in
10:57 51.3 °F 43.3 °F 30.11 in West 1.1 mph 1.1 mph 74% 0.00 in
11:02 51.3 °F 43.3 °F 30.10 in SSW 1.0 mph 1.0 mph 74% 0.00 in
11:07 51.0 °F 42.6 °F 30.11 in SW 1.1 mph   73% 0.00 in
11:12 51.3 °F 43.6 °F 30.10 in NNW 2.3 mph 2.3 mph 75% 0.00 in
11:17 51.4 °F 43.4 °F 30.10 in Calm     74% 0.00 in
11:22 51.8 °F 43.8 °F 30.10 in South 1.1 mph 1.1 mph 74% 0.00 in
11:27 52.1 °F 44.1 °F 30.10 in Calm     74% 0.00 in
11:33 52.4 °F 43.3 °F 30.10 in WSW 1.1 mph 1.1 mph 71% 0.00 in
11:38 52.2 °F 43.8 °F 30.10 in ESE 2.3 mph 2.3 mph 73% 0.00 in
11:43 52.4 °F 44.4 °F 30.10 in NNE 1.1 mph 1.1 mph 74% 0.00 in
11:48 52.9 °F 44.1 °F 30.10 in ENE 1.1 mph 1.1 mph 72% 0.00 in
11:53 53.6 °F 44.0 °F 30.10 in East 2.3 mph 2.3 mph 70% 0.00 in
11:58 53.2 °F 44.0 °F 30.09 in NNW 1.1 mph 1.1 mph 71% 0.00 in
12:03 53.8 °F 45.3 °F 30.09 in North 1.1 mph 1.1 mph 73% 0.00 in
12:08 54.1 °F 44.5 °F 30.09 in West 2.3 mph 2.3 mph 70% 0.00 in
12:13 54.3 °F 44.3 °F 30.09 in West 2.3 mph 2.3 mph 69% 0.00 in
12:18 54.6 °F 44.2 °F 30.08 in NW 3.5 mph 3.5 mph 68% 0.00 in
12:23 55.2 °F 44.8 °F 30.08 in WNW 1.1 mph 1.1 mph 68% 0.00 in
12:28 55.5 °F 43.9 °F 30.08 in Calm     65% 0.00 in
12:33 56.4 °F 45.6 °F 30.08 in East 1.1 mph 1.1 mph 67% 0.00 in
12:38 57.4 °F 45.3 °F 30.08 in North 1.1 mph 1.1 mph 64% 0.00 in
12:43 57.6 °F 45.5 °F 30.08 in NNE 2.3 mph 2.3 mph 64% 0.00 in
12:48 58.1 °F 46.0 °F 30.07 in North 2.3 mph 2.3 mph 64% 0.00 in
12:53 58.3 °F 45.3 °F 30.07 in NNW 1.1 mph   62% 0.00 in
12:58 57.8 °F 44.9 °F 30.06 in Calm     62% 0.00 in
13:03 58.0 °F 45.0 °F 30.06 in NE 1.1 mph 1.1 mph 62% 0.00 in
13:08 57.8 °F 44.4 °F 30.06 in West 1.1 mph   61% 0.00 in
13:13 57.4 °F 44.5 °F 30.06 in North 2.3 mph 2.3 mph 62% 0.00 in
13:18 57.2 °F 43.9 °F 30.06 in Calm     61% 0.00 in
13:23 57.4 °F 43.6 °F 30.06 in South 3.5 mph 3.5 mph 60% 0.00 in
13:28 57.7 °F 43.0 °F 30.06 in NW 3.5 mph 3.5 mph 58% 0.00 in
13:33 57.6 °F 42.9 °F 30.05 in East 3.0 mph 3.0 mph 58% 0.00 in
13:38 57.8 °F 44.0 °F 30.05 in SSE 3.5 mph 3.5 mph 60% 0.00 in
13:43 58.3 °F 44.0 °F 30.05 in East 2.3 mph 2.3 mph 59% 0.00 in
13:48 58.0 °F 42.8 °F 30.05 in WNW 2.3 mph 2.3 mph 57% 0.00 in
13:53 57.8 °F 44.0 °F 30.05 in SSW 1.1 mph 1.1 mph 60% 0.00 in
13:58 58.1 °F 42.9 °F 30.05 in ENE 3.5 mph 3.5 mph 57% 0.00 in
14:03 58.3 °F 44.5 °F 30.05 in NNW 2.3 mph 2.3 mph 60% 0.00 in
14:08 59.0 °F 43.8 °F 30.05 in SW 1.1 mph 1.1 mph 57% 0.00 in
14:13 59.9 °F 44.6 °F 30.05 in WNW 1.1 mph 1.1 mph 57% 0.00 in
14:18 60.2 °F 43.5 °F 30.05 in North 3.5 mph 3.5 mph 54% 0.00 in
14:23 59.8 °F 42.1 °F 30.05 in WNW 3.5 mph 3.5 mph 52% 0.00 in
14:28 59.6 °F 41.9 °F 30.05 in WSW 2.3 mph 2.3 mph 52% 0.00 in
14:33 59.9 °F 42.2 °F 30.05 in WNW 3.5 mph 3.5 mph 52% 0.00 in
14:39 59.9 °F 41.7 °F 30.05 in NW 3.5 mph 3.5 mph 51% 0.00 in
14:44 60.0 °F 41.8 °F 30.05 in North 2.3 mph 2.3 mph 51% 0.00 in
14:49 60.4 °F 41.7 °F 30.05 in West 2.3 mph 2.3 mph 50% 0.00 in
14:54 60.6 °F 41.8 °F 30.05 in NW 2.3 mph 2.3 mph 50% 0.00 in
14:59 60.6 °F 41.8 °F 30.05 in WNW 3.0 mph 3.0 mph 50% 0.00 in
15:04 60.4 °F 42.2 °F 30.05 in SW 3.5 mph 3.5 mph 51% 0.00 in
15:09 60.2 °F 41.0 °F 30.05 in SSW 2.3 mph 2.3 mph 49% 0.00 in
15:14 60.3 °F 41.0 °F 30.04 in West 1.1 mph 1.1 mph 49% 0.00 in
15:19 60.3 °F 40.5 °F 30.04 in SW 1.1 mph 1.1 mph 48% 0.00 in
15:24 60.8 °F 42.0 °F 30.04 in WNW 3.5 mph 3.5 mph 50% 0.00 in
15:29 61.0 °F 41.7 °F 30.04 in South 2.3 mph 2.3 mph 49% 0.00 in
15:34 60.8 °F 42.0 °F 30.04 in SSE 2.3 mph 2.3 mph 50% 0.00 in
15:39 60.8 °F 41.0 °F 30.04 in West 1.1 mph 1.1 mph 48% 0.00 in
15:44 61.1 °F 41.8 °F 30.04 in NNE 4.6 mph 4.6 mph 49% 0.00 in
15:49 60.7 °F 40.9 °F 30.04 in SSE 2.3 mph 2.3 mph 48% 0.00 in
15:54 60.9 °F 41.6 °F 30.04 in West 5.0 mph 5.0 mph 49% 0.00 in
15:59 60.8 °F 41.0 °F 30.04 in NNW 3.5 mph 3.5 mph 48% 0.00 in
16:04 60.7 °F 40.9 °F 30.04 in NW 2.3 mph 2.3 mph 48% 0.00 in
16:09 60.9 °F 41.1 °F 30.04 in WNW 1.1 mph 1.1 mph 48% 0.00 in
16:14 60.4 °F 40.6 °F 30.04 in WSW 1.1 mph 1.1 mph 48% 0.00 in
16:19 60.4 °F 40.6 °F 30.04 in NNW 4.0 mph 4.0 mph 48% 0.00 in
16:24 59.7 °F 40.0 °F 30.04 in WSW 1.1 mph 1.1 mph 48% 0.00 in
16:29 59.5 °F 40.3 °F 30.04 in ENE 2.3 mph 2.3 mph 49% 0.00 in
16:34 59.3 °F 40.1 °F 30.04 in WNW 1.1 mph 1.1 mph 49% 0.00 in
16:39 59.2 °F 40.0 °F 30.04 in SSE 1.1 mph 1.1 mph 49% 0.00 in
16:44 58.7 °F 40.6 °F 30.04 in North 1.1 mph 1.1 mph 51% 0.00 in
16:49 58.0 °F 40.0 °F 30.04 in North 1.1 mph 1.1 mph 51% 0.00 in
16:54 57.3 °F 39.3 °F 30.05 in NW 1.1 mph 1.1 mph 51% 0.00 in
16:59 56.8 °F 39.4 °F 30.05 in NW 3.5 mph 3.5 mph 52% 0.00 in
17:04 56.3 °F 39.4 °F 30.05 in WNW 3.5 mph 3.5 mph 53% 0.00 in
17:09 56.1 °F 39.7 °F 30.05 in West 1.1 mph 1.1 mph 54% 0.00 in
17:14 55.9 °F 40.0 °F 30.05 in West 1.0 mph   55% 0.00 in
17:19 55.5 °F 39.6 °F 30.05 in North 2.3 mph 2.3 mph 55% 0.00 in
17:24 55.2 °F 39.8 °F 30.05 in Calm     56% 0.00 in
17:29 54.9 °F 39.9 °F 30.05 in Calm     57% 0.00 in
17:34 54.5 °F 39.6 °F 30.05 in Calm     57% 0.00 in
17:39 54.2 °F 39.7 °F 30.05 in Calm     58% 0.00 in
17:44 53.8 °F 39.4 °F 30.05 in North 1.1 mph   58% 0.00 in
17:49 53.5 °F 39.5 °F 30.05 in Calm     59% 0.00 in
17:54 53.1 °F 39.6 °F 30.05 in Calm     60% 0.00 in
17:59 52.8 °F 39.7 °F 30.05 in Calm     61% 0.00 in
18:04 52.4 °F 39.8 °F 30.06 in Calm     62% 0.00 in
18:09 51.9 °F 39.7 °F 30.06 in Calm     63% 0.00 in
18:14 51.6 °F 39.8 °F 30.06 in Calm     64% 0.00 in
18:19 51.1 °F 39.7 °F 30.05 in Calm     65% 0.00 in
18:24 50.8 °F 39.8 °F 30.06 in Calm     66% 0.00 in
18:29 50.5 °F 39.6 °F 30.06 in Calm     66% 0.00 in
18:34 50.2 °F 39.7 °F 30.06 in Calm     67% 0.00 in
18:39 49.8 °F 39.7 °F 30.06 in Calm     68% 0.00 in
18:44 49.5 °F 39.7 °F 30.07 in Calm     69% 0.00 in
18:49 49.3 °F 39.6 °F 30.07 in Calm     69% 0.00 in
18:54 49.0 °F 39.6 °F 30.07 in Calm     70% 0.00 in
18:59 48.6 °F 39.6 °F 30.07 in Calm     71% 0.00 in
19:04 48.3 °F 39.7 °F 30.07 in Calm     72% 0.00 in
19:09 48.3 °F 39.7 °F 30.08 in Calm     72% 0.00 in
19:14 48.3 °F 40.0 °F 30.08 in Calm     73% 0.00 in
19:19 48.0 °F 39.8 °F 30.08 in Calm     73% 0.00 in
19:24 47.6 °F 39.4 °F 30.08 in Calm     73% 0.00 in
19:29 47.0 °F 39.1 °F 30.08 in Calm     74% 0.00 in
19:34 46.4 °F 38.9 °F 30.08 in Calm     75% 0.00 in
19:39 45.9 °F 39.1 °F 30.08 in Calm     77% 0.00 in
19:44 45.4 °F 38.9 °F 30.08 in Calm     78% 0.00 in
19:49 45.0 °F 38.9 °F 30.08 in Calm     79% 0.00 in
19:54 44.6 °F 39.1 °F 30.08 in Calm     81% 0.00 in
19:59 44.3 °F 38.8 °F 30.08 in Calm     81% 0.00 in
20:04 44.1 °F 39.0 °F 30.08 in Calm     82% 0.00 in
20:09 43.8 °F 38.7 °F 30.08 in Calm     82% 0.00 in
20:14 43.5 °F 38.7 °F 30.08 in Calm     83% 0.00 in
20:19 43.4 °F 38.9 °F 30.08 in Calm     84% 0.00 in
20:24 43.2 °F 38.7 °F 30.08 in Calm     84% 0.00 in
20:29 43.1 °F 38.6 °F 30.08 in Calm     84% 0.00 in
20:34 42.9 °F 38.7 °F 30.08 in Calm     85% 0.00 in
20:39 43.0 °F 39.1 °F 30.08 in Calm     86% 0.00 in
20:44 43.2 °F 39.0 °F 30.08 in Calm     85% 0.00 in
20:49 43.3 °F 39.1 °F 30.08 in Calm     85% 0.00 in
20:54 43.2 °F 38.7 °F 30.08 in Calm     84% 0.00 in
20:59 43.1 °F 38.9 °F 30.08 in Calm     85% 0.00 in
21:00 43.1 °F 38.9 °F 30.08 in Calm     85% 0.00 in
21:01 43.1 °F 38.9 °F 30.08 in Calm     85% 0.00 in
21:06 43.1 °F 38.6 °F 30.08 in Calm     84% 0.00 in
21:11 43.1 °F 38.9 °F 30.08 in Calm     85% 0.00 in
21:16 43.2 °F 38.7 °F 30.08 in Calm     84% 0.00 in
21:21 43.2 °F 38.7 °F 30.08 in Calm     84% 0.00 in
21:26 43.3 °F 38.8 °F 30.09 in Calm     84% 0.00 in
21:31 43.2 °F 38.7 °F 30.09 in Calm     84% 0.00 in
21:36 43.4 °F 38.9 °F 30.09 in Calm     84% 0.00 in
21:41 43.5 °F 38.7 °F 30.09 in Calm     83% 0.00 in
21:46 43.4 °F 38.6 °F 30.09 in Calm     83% 0.00 in
21:51 43.1 °F 38.3 °F 30.09 in Calm     83% 0.00 in
21:56 42.7 °F 37.6 °F 30.10 in Calm     82% 0.00 in
21:58 42.6 °F 37.5 °F 30.10 in Calm     82% 0.00 in
22:03 42.3 °F 37.8 °F 30.10 in Calm     84% 0.00 in
22:08 42.3 °F 38.1 °F 30.10 in Calm     85% 0.00 in
22:13 42.3 °F 38.1 °F 30.10 in Calm     85% 0.00 in
22:18 42.0 °F 37.5 °F 30.10 in Calm     84% 0.00 in
22:23 41.7 °F 37.2 °F 30.10 in Calm     84% 0.00 in
22:28 41.3 °F 37.1 °F 30.10 in Calm     85% 0.00 in
22:33 41.1 °F 37.2 °F 30.11 in Calm     86% 0.00 in
22:38 40.9 °F 37.3 °F 30.11 in Calm     87% 0.00 in
22:43 41.3 °F 37.7 °F 30.11 in Calm     87% 0.00 in
22:48 41.2 °F 37.6 °F 30.12 in Calm     87% 0.00 in
22:53 41.1 °F 37.5 °F 30.11 in Calm     87% 0.00 in
22:58 40.9 °F 37.3 °F 30.11 in Calm     87% 0.00 in
23:03 40.6 °F 37.0 °F 30.11 in Calm     87% 0.00 in
23:08 40.5 °F 37.2 °F 30.11 in Calm     88% 0.00 in
23:13 40.6 °F 37.6 °F 30.11 in Calm     89% 0.00 in
23:18 40.9 °F 37.9 °F 30.11 in Calm     89% 0.00 in
23:23 41.2 °F 37.9 °F 30.11 in Calm     88% 0.00 in
23:28 41.5 °F 37.9 °F 30.11 in Calm     87% 0.00 in
23:33 41.7 °F 38.1 °F 30.11 in Calm     87% 0.00 in
23:38 41.7 °F 37.8 °F 30.11 in Calm     86% 0.00 in
23:43 41.6 °F 37.7 °F 30.11 in Calm     86% 0.00 in
23:48 41.4 °F 37.2 °F 30.11 in Calm     85% 0.00 in
23:54 41.1 °F 37.2 °F 30.11 in Calm     86% 0.00 in
23:59 40.8 °F 36.9 °F 30.11 in Calm     86% 0.00 in
Compliments of Weather Underground